createdAt,value
2022-10-28T00:00:13.011Z,-80
2022-10-28T00:05:56.339Z,-80
2022-10-28T00:08:25.781Z,-80
2022-10-28T00:17:19.681Z,-70
2022-10-28T00:19:47.346Z,-70
2022-10-28T00:22:15.235Z,-70
2022-10-28T00:24:42.870Z,-70
2022-10-28T00:27:10.567Z,-69
2022-10-28T00:29:43.615Z,-70
2022-10-28T00:32:11.312Z,-69
2022-10-28T00:34:39.048Z,-70
2022-10-28T00:37:06.694Z,-70
2022-10-28T00:39:34.337Z,-70
2022-10-28T00:42:04.681Z,-69
2022-10-28T00:44:32.517Z,-70
2022-10-28T00:47:00.156Z,-69
2022-10-28T00:49:27.817Z,-69
2022-10-28T00:51:55.514Z,-70
2022-10-28T00:54:23.227Z,-70
2022-10-28T00:56:51.050Z,-69
2022-10-28T00:59:20.857Z,-69
2022-10-28T01:01:48.617Z,-70
2022-10-28T01:04:16.411Z,-70
2022-10-28T01:06:44.095Z,-70
2022-10-28T01:09:11.746Z,-69
2022-10-28T01:11:39.433Z,-70
2022-10-28T01:14:07.326Z,-69
2022-10-28T01:16:35.362Z,-69
2022-10-28T01:19:03.494Z,-70
2022-10-28T01:21:31.147Z,-70
2022-10-28T01:23:58.827Z,-70
2022-10-28T01:26:26.475Z,-69
2022-10-28T01:28:54.144Z,-69
2022-10-28T01:31:21.982Z,-70
2022-10-28T01:33:49.646Z,-70
2022-10-28T01:36:17.275Z,-69
2022-10-28T01:38:45.073Z,-70
2022-10-28T01:41:12.874Z,-70
2022-10-28T01:43:40.549Z,-70
2022-10-28T01:46:08.296Z,-70
2022-10-28T01:48:41.216Z,-69
2022-10-28T01:51:08.948Z,-69
2022-10-28T01:53:36.611Z,-69
2022-10-28T01:56:04.363Z,-70
2022-10-28T01:58:32.063Z,-69
2022-10-28T02:01:02.024Z,-70
2022-10-28T02:03:29.813Z,-71
2022-10-28T02:05:57.557Z,-70
2022-10-28T02:08:25.357Z,-71
2022-10-28T02:10:53.048Z,-70
2022-10-28T02:13:20.681Z,-70
2022-10-28T02:15:48.361Z,-70
2022-10-28T02:18:16.110Z,-70
2022-10-28T02:20:43.817Z,-70
2022-10-28T02:23:11.650Z,-70
2022-10-28T02:25:39.316Z,-70
2022-10-28T02:28:07.026Z,-69
2022-10-28T02:30:34.789Z,-70
2022-10-28T02:33:02.483Z,-70
2022-10-28T02:35:32.205Z,-69
2022-10-28T02:37:59.892Z,-70
2022-10-28T02:40:27.529Z,-70
2022-10-28T02:42:55.620Z,-70
2022-10-28T02:45:24.277Z,-69
2022-10-28T02:47:51.962Z,-70
2022-10-28T02:50:19.601Z,-69
2022-10-28T02:52:47.412Z,-70
2022-10-28T02:55:15.195Z,-70
2022-10-28T02:57:43.000Z,-69
2022-10-28T03:00:10.695Z,-70
2022-10-28T03:02:38.497Z,-70
2022-10-28T03:05:06.240Z,-70
2022-10-28T03:07:33.943Z,-70
2022-10-28T03:10:01.674Z,-71
2022-10-28T03:12:31.579Z,-69
2022-10-28T03:14:59.379Z,-70
2022-10-28T03:17:27.161Z,-69
2022-10-28T03:19:54.848Z,-69
2022-10-28T03:22:28.196Z,-69
2022-10-28T03:24:55.868Z,-70
2022-10-28T03:27:23.585Z,-70
2022-10-28T03:29:51.296Z,-69
2022-10-28T03:32:19.039Z,-69
2022-10-28T03:34:47.462Z,-69
2022-10-28T03:37:15.152Z,-69
2022-10-28T03:39:42.874Z,-69
2022-10-28T03:42:10.534Z,-69
2022-10-28T03:44:38.192Z,-69
2022-10-28T03:47:05.971Z,-70
2022-10-28T03:49:33.615Z,-70
2022-10-28T03:52:01.325Z,-70
2022-10-28T03:54:28.993Z,-69
2022-10-28T03:56:56.660Z,-69
2022-10-28T03:59:24.318Z,-69
2022-10-28T04:01:52.144Z,-69
2022-10-28T04:04:19.938Z,-69
2022-10-28T04:06:47.819Z,-70
2022-10-28T04:09:15.452Z,-69
2022-10-28T04:11:43.354Z,-70
2022-10-28T04:14:11.090Z,-70
2022-10-28T04:16:38.757Z,-70
2022-10-28T04:19:06.538Z,-73
2022-10-28T04:21:34.233Z,-71
2022-10-28T04:24:01.903Z,-71
2022-10-28T04:26:31.917Z,-72
2022-10-28T04:28:59.680Z,-72
2022-10-28T04:31:27.421Z,-71
2022-10-28T04:33:55.175Z,-71
2022-10-28T04:36:22.877Z,-72
2022-10-28T04:38:51.941Z,-72
2022-10-28T04:41:19.700Z,-72
2022-10-28T04:43:47.395Z,-72
2022-10-28T04:46:15.164Z,-72
2022-10-28T04:48:42.907Z,-72
2022-10-28T04:51:10.631Z,-72
2022-10-28T04:53:38.385Z,-72
2022-10-28T04:56:06.064Z,-72
2022-10-28T04:58:33.788Z,-72
2022-10-28T05:01:01.485Z,-72
2022-10-28T05:03:29.230Z,-72
2022-10-28T05:05:56.999Z,-72
2022-10-28T05:08:24.695Z,-72
2022-10-28T05:10:52.397Z,-74
2022-10-28T05:13:20.161Z,-73
2022-10-28T05:15:47.805Z,-73
2022-10-28T05:18:15.451Z,-73
2022-10-28T05:20:43.932Z,-73
2022-10-28T05:23:11.624Z,-73
2022-10-28T05:25:39.388Z,-73
2022-10-28T05:28:07.115Z,-73
2022-10-28T05:30:34.784Z,-73
2022-10-28T05:33:02.744Z,-73
2022-10-28T05:35:30.478Z,-73
2022-10-28T05:37:58.189Z,-73
2022-10-28T05:40:25.865Z,-73
2022-10-28T05:42:53.742Z,-73
2022-10-28T05:45:24.434Z,-73
2022-10-28T05:47:52.349Z,-73
2022-10-28T05:50:20.612Z,-73
2022-10-28T05:52:48.493Z,-73
2022-10-28T05:55:16.182Z,-73
2022-10-28T05:57:43.927Z,-73
2022-10-28T06:00:11.595Z,-73
2022-10-28T06:02:39.275Z,-73
2022-10-28T06:05:06.913Z,-73
2022-10-28T06:07:35.374Z,-73
2022-10-28T06:10:03.038Z,-73
2022-10-28T06:12:29.252Z,-74
2022-10-28T06:14:57.067Z,-73
2022-10-28T06:17:24.958Z,-73
2022-10-28T06:19:52.668Z,-73
2022-10-28T06:22:20.308Z,-73
2022-10-28T06:24:48.105Z,-73
2022-10-28T06:27:15.809Z,-73
2022-10-28T06:29:43.563Z,-73
2022-10-28T06:32:11.232Z,-73
2022-10-28T06:34:39.025Z,-73
2022-10-28T06:37:06.791Z,-73
2022-10-28T06:39:35.053Z,-73
2022-10-28T06:42:02.740Z,-73
2022-10-28T06:44:30.463Z,-73
2022-10-28T06:46:59.664Z,-73
2022-10-28T06:49:27.398Z,-73
2022-10-28T06:51:55.095Z,-73
2022-10-28T06:54:22.742Z,-73
2022-10-28T06:56:50.464Z,-73
2022-10-28T06:59:18.153Z,-73
2022-10-28T07:01:45.888Z,-73
2022-10-28T07:04:13.853Z,-73
2022-10-28T07:06:41.631Z,-73
2022-10-28T07:09:09.295Z,-74
2022-10-28T07:11:36.955Z,-73
2022-10-28T07:14:04.585Z,-73
2022-10-28T07:16:32.292Z,-73
2022-10-28T07:18:59.981Z,-73
2022-10-28T07:21:28.574Z,-73
2022-10-28T07:23:56.738Z,-74
2022-10-28T07:26:24.439Z,-74
2022-10-28T07:28:52.178Z,-73
2022-10-28T07:31:19.856Z,-73
2022-10-28T07:33:47.558Z,-73
2022-10-28T07:36:15.236Z,-73
2022-10-28T07:38:42.923Z,-73
2022-10-28T07:41:10.612Z,-73
2022-10-28T07:43:38.437Z,-73
2022-10-28T07:46:06.217Z,-73
2022-10-28T07:48:33.864Z,-73
2022-10-28T07:51:01.673Z,-73
2022-10-28T07:53:29.454Z,-73
2022-10-28T07:55:59.854Z,-74
2022-10-28T07:58:27.588Z,-73
2022-10-28T08:00:55.430Z,-73
2022-10-28T08:03:31.112Z,-73
2022-10-28T08:06:05.873Z,-73
2022-10-28T08:08:33.600Z,-73
2022-10-28T08:11:01.335Z,-73
2022-10-28T08:13:28.984Z,-73
2022-10-28T08:15:56.703Z,-73
2022-10-28T08:18:24.452Z,-73
2022-10-28T08:20:52.251Z,-73
2022-10-28T08:23:20.023Z,-74
2022-10-28T08:25:47.745Z,-73
2022-10-28T08:28:15.475Z,-73
2022-10-28T08:30:57.086Z,-74
2022-10-28T08:33:30.946Z,-74
2022-10-28T08:35:58.686Z,-74
2022-10-28T08:38:26.833Z,-74
2022-10-28T08:40:54.595Z,-74
2022-10-28T08:43:35.000Z,-74
2022-10-28T08:46:10.103Z,-74
2022-10-28T08:48:37.768Z,-73
2022-10-28T08:51:05.467Z,-74
2022-10-28T08:53:33.162Z,-73
2022-10-28T08:56:00.865Z,-73
2022-10-28T08:58:28.579Z,-73
2022-10-28T09:00:56.327Z,-73
2022-10-28T09:03:24.085Z,-73
2022-10-28T09:05:52.268Z,-73
2022-10-28T09:08:19.908Z,-73
2022-10-28T09:10:47.664Z,-73
2022-10-28T09:13:15.343Z,-72
2022-10-28T09:15:43.055Z,-73
2022-10-28T09:18:10.727Z,-73
2022-10-28T09:20:39.393Z,-73
2022-10-28T09:23:07.120Z,-73
2022-10-28T09:25:35.602Z,-73
2022-10-28T09:28:03.316Z,-73
2022-10-28T09:30:31.102Z,-73
2022-10-28T09:32:58.785Z,-73
2022-10-28T09:35:26.436Z,-74
2022-10-28T09:37:54.118Z,-73
2022-10-28T09:40:21.832Z,-73
2022-10-28T09:42:49.532Z,-74
2022-10-28T09:45:17.215Z,-73
2022-10-28T09:47:44.930Z,-74
2022-10-28T09:50:12.613Z,-74
2022-10-28T09:52:40.284Z,-74
2022-10-28T09:55:07.972Z,-74
2022-10-28T09:57:35.663Z,-74
2022-10-28T10:00:03.429Z,-73
2022-10-28T10:02:31.240Z,-73
2022-10-28T10:04:59.133Z,-73
2022-10-28T10:07:26.906Z,-73
2022-10-28T10:09:54.604Z,-73
2022-10-28T10:12:22.319Z,-73
2022-10-28T10:14:50.025Z,-73
2022-10-28T10:17:17.881Z,-73
2022-10-28T10:19:50.362Z,-73
2022-10-28T10:22:18.218Z,-73
2022-10-28T10:24:45.898Z,-73
2022-10-28T10:27:13.583Z,-73
2022-10-28T10:29:41.229Z,-73
2022-10-28T10:32:09.028Z,-73
2022-10-28T10:34:37.165Z,-73
2022-10-28T10:37:05.120Z,-73
2022-10-28T10:39:32.916Z,-74
2022-10-28T10:42:00.630Z,-74
2022-10-28T10:44:28.323Z,-73
2022-10-28T10:46:56.213Z,-73
2022-10-28T10:49:23.889Z,-73
2022-10-28T10:51:51.717Z,-73
2022-10-28T10:54:20.037Z,-73
2022-10-28T10:56:47.789Z,-73
2022-10-28T10:59:15.625Z,-74
2022-10-28T11:01:43.412Z,-74
2022-10-28T11:04:11.271Z,-73
2022-10-28T11:06:38.960Z,-73
2022-10-28T11:09:06.709Z,-73
2022-10-28T11:11:34.608Z,-73
2022-10-28T11:14:02.243Z,-74
2022-10-28T11:16:29.911Z,-74
2022-10-28T11:18:57.589Z,-73
2022-10-28T11:21:25.295Z,-73
2022-10-28T11:23:53.068Z,-74
2022-10-28T11:26:20.768Z,-73
2022-10-28T11:28:48.476Z,-74
2022-10-28T11:31:16.150Z,-73
2022-10-28T11:33:43.821Z,-73
2022-10-28T11:36:11.587Z,-73
2022-10-28T11:38:44.630Z,-73
2022-10-28T11:41:13.365Z,-73
2022-10-28T11:43:41.073Z,-74
2022-10-28T11:46:08.798Z,-74
2022-10-28T11:48:36.679Z,-73
2022-10-28T11:51:04.409Z,-73
2022-10-28T11:53:32.161Z,-73
2022-10-28T11:55:59.855Z,-73
2022-10-28T11:58:27.590Z,-73
2022-10-28T12:00:55.333Z,-74
2022-10-28T12:03:23.090Z,-73
2022-10-28T12:05:50.948Z,-73
2022-10-28T12:08:18.655Z,-73
2022-10-28T12:10:46.306Z,-73
2022-10-28T12:13:14.020Z,-73
2022-10-28T12:15:41.719Z,-73
2022-10-28T12:18:09.397Z,-73
2022-10-28T12:20:37.100Z,-73
2022-10-28T12:23:04.775Z,-73
2022-10-28T12:25:32.515Z,-73
2022-10-28T12:28:00.284Z,-74
2022-10-28T12:30:28.084Z,-73
2022-10-28T12:32:56.466Z,-73
2022-10-28T12:35:24.578Z,-73
2022-10-28T12:37:52.428Z,-74
2022-10-28T12:40:20.761Z,-73
2022-10-28T12:42:48.527Z,-74
2022-10-28T12:45:16.285Z,-73
2022-10-28T12:47:43.949Z,-73
2022-10-28T12:50:11.710Z,-73
2022-10-28T12:52:39.483Z,-73
2022-10-28T12:55:07.296Z,-75
2022-10-28T12:57:35.304Z,-73
2022-10-28T13:00:03.005Z,-73
2022-10-28T13:02:30.806Z,-73
2022-10-28T13:04:58.593Z,-73
2022-10-28T13:07:26.260Z,-73
2022-10-28T13:09:53.947Z,-73
2022-10-28T13:12:21.638Z,-73
2022-10-28T13:14:49.331Z,-73
2022-10-28T13:17:17.100Z,-73
2022-10-28T13:19:44.819Z,-73
2022-10-28T13:22:12.495Z,-73
2022-10-28T13:24:40.138Z,-76
2022-10-28T13:27:08.097Z,-73
2022-10-28T13:29:35.752Z,-73
2022-10-28T13:32:03.495Z,-74
2022-10-28T13:34:31.166Z,-74
2022-10-28T13:36:59.353Z,-74
2022-10-28T13:39:27.085Z,-74
2022-10-28T13:41:54.745Z,-74
2022-10-28T13:44:22.504Z,-74
2022-10-28T13:46:50.157Z,-73
2022-10-28T13:49:17.933Z,-73
2022-10-28T13:51:45.775Z,-74
2022-10-28T13:54:13.479Z,-74
2022-10-28T13:56:41.143Z,-73
2022-10-28T13:59:09.185Z,-73
2022-10-28T14:01:37.009Z,-73
2022-10-28T14:04:04.867Z,-73
2022-10-28T14:06:32.580Z,-73
2022-10-28T14:09:00.351Z,-73
2022-10-28T14:11:29.191Z,-73
2022-10-28T14:13:56.916Z,-73
2022-10-28T14:16:25.004Z,-73
2022-10-28T14:18:52.688Z,-74
2022-10-28T14:21:20.375Z,-74
2022-10-28T14:23:48.065Z,-73
2022-10-28T14:26:15.725Z,-74
2022-10-28T14:28:43.457Z,-73
2022-10-28T14:31:11.523Z,-74
2022-10-28T14:33:39.287Z,-74
2022-10-28T14:36:07.024Z,-74
2022-10-28T14:38:34.682Z,-75
2022-10-28T14:41:02.474Z,-74
2022-10-28T14:43:30.743Z,-74
2022-10-28T14:45:58.543Z,-73
2022-10-28T14:48:26.225Z,-73
2022-10-28T14:50:53.934Z,-73
2022-10-28T14:53:21.661Z,-73
2022-10-28T14:55:49.406Z,-74
2022-10-28T14:58:17.074Z,-73
2022-10-28T15:00:44.785Z,-73
2022-10-28T15:03:12.487Z,-73
2022-10-28T15:05:40.421Z,-74
2022-10-28T15:08:08.165Z,-74
2022-10-28T15:10:37.446Z,-74
2022-10-28T15:13:07.062Z,-73
2022-10-28T15:15:34.939Z,-74
2022-10-28T15:18:02.621Z,-74
2022-10-28T15:20:30.326Z,-74
2022-10-28T15:22:58.144Z,-73
2022-10-28T15:25:26.326Z,-74
2022-10-28T15:27:54.448Z,-73
2022-10-28T15:30:23.664Z,-74
2022-10-28T15:32:51.666Z,-73
2022-10-28T15:35:19.344Z,-73
2022-10-28T15:37:47.105Z,-74
2022-10-28T15:40:14.899Z,-75
2022-10-28T15:42:42.695Z,-73
2022-10-28T15:45:10.430Z,-73
2022-10-28T15:47:38.234Z,-73
2022-10-28T15:50:05.937Z,-74
2022-10-28T15:52:33.819Z,-73
2022-10-28T15:55:01.818Z,-74
2022-10-28T15:57:29.503Z,-75
2022-10-28T15:59:57.382Z,-74
2022-10-28T16:02:25.157Z,-73
2022-10-28T16:04:53.140Z,-73
2022-10-28T16:07:20.878Z,-74
2022-10-28T16:09:48.540Z,-75
2022-10-28T16:12:16.284Z,-73
2022-10-28T16:14:43.932Z,-74
2022-10-28T16:17:11.740Z,-73
2022-10-28T16:19:39.400Z,-73
2022-10-28T16:22:07.064Z,-73
2022-10-28T16:24:34.728Z,-73
2022-10-28T16:27:02.453Z,-74
2022-10-28T16:29:30.380Z,-73
2022-10-28T16:31:58.071Z,-73
2022-10-28T16:34:25.712Z,-74
2022-10-28T16:36:53.582Z,-69
2022-10-28T16:39:21.303Z,-70
2022-10-28T16:41:48.986Z,-69
2022-10-28T16:44:16.778Z,-70
2022-10-28T16:46:44.510Z,-70
2022-10-28T16:49:12.140Z,-69
2022-10-28T16:51:39.917Z,-69
2022-10-28T16:54:07.747Z,-70
2022-10-28T16:56:35.439Z,-69
2022-10-28T16:59:03.132Z,-70
2022-10-28T17:01:36.260Z,-70
2022-10-28T17:04:04.019Z,-70
2022-10-28T17:06:31.880Z,-70
2022-10-28T17:09:03.181Z,-70
2022-10-28T17:14:03.747Z,-70
2022-10-28T17:16:31.573Z,-70
2022-10-28T17:18:59.392Z,-70
2022-10-28T17:21:27.080Z,-70
2022-10-28T17:23:54.767Z,-70
2022-10-28T17:26:22.434Z,-70
2022-10-28T17:28:50.299Z,-70
2022-10-28T17:31:20.595Z,-70
2022-10-28T17:33:51.734Z,-70
2022-10-28T17:36:19.472Z,-69
2022-10-28T17:38:48.807Z,-70
2022-10-28T17:41:16.595Z,-70
2022-10-28T17:43:44.262Z,-70
2022-10-28T17:46:12.038Z,-70
2022-10-28T17:48:40.633Z,-69
2022-10-28T17:51:08.403Z,-70
2022-10-28T17:53:36.110Z,-70
2022-10-28T17:56:03.993Z,-70
2022-10-28T17:58:31.709Z,-70
2022-10-28T18:00:59.591Z,-70
2022-10-28T18:03:27.325Z,-70
2022-10-28T18:05:55.282Z,-70
2022-10-28T18:08:22.963Z,-70
2022-10-28T18:10:50.697Z,-70
2022-10-28T18:13:18.355Z,-70
2022-10-28T18:15:46.201Z,-70
2022-10-28T18:18:14.603Z,-70
2022-10-28T18:20:42.349Z,-70
2022-10-28T18:23:10.192Z,-70
2022-10-28T18:25:38.147Z,-70
2022-10-28T18:28:05.882Z,-70
2022-10-28T18:30:33.534Z,-70
2022-10-28T18:33:01.410Z,-70
2022-10-28T18:35:29.529Z,-70
2022-10-28T18:37:57.884Z,-70
2022-10-28T18:40:25.897Z,-70
2022-10-28T18:42:53.638Z,-70
2022-10-28T18:45:21.399Z,-70
2022-10-28T18:47:49.065Z,-70
2022-10-28T18:50:16.744Z,-70
2022-10-28T18:52:44.749Z,-70
2022-10-28T18:55:12.431Z,-70
2022-10-28T18:57:40.267Z,-69
2022-10-28T19:00:23.166Z,-70
2022-10-28T19:02:51.057Z,-69
2022-10-28T19:05:18.873Z,-69
2022-10-28T19:07:46.611Z,-69
2022-10-28T19:10:14.838Z,-70
2022-10-28T19:12:45.035Z,-70
2022-10-28T19:15:14.627Z,-70
2022-10-28T19:17:42.309Z,-69
2022-10-28T19:20:10.287Z,-69
2022-10-28T19:22:38.034Z,-70
2022-10-28T19:25:05.888Z,-70
2022-10-28T19:27:33.679Z,-70
2022-10-28T19:30:06.445Z,-69
2022-10-28T19:32:36.914Z,-69
2022-10-28T19:35:04.695Z,-69
2022-10-28T19:37:32.469Z,-70
2022-10-28T19:40:00.177Z,-70
2022-10-28T19:42:27.928Z,-69
2022-10-28T19:44:55.886Z,-69
2022-10-28T19:47:23.671Z,-69
2022-10-28T19:49:51.431Z,-69
2022-10-28T19:52:19.073Z,-70
2022-10-28T19:54:46.765Z,-70
2022-10-28T19:57:14.632Z,-70
2022-10-28T19:59:45.476Z,-69
2022-10-28T20:02:13.233Z,-71
2022-10-28T20:04:41.103Z,-70
2022-10-28T20:07:08.828Z,-70
2022-10-28T20:09:36.524Z,-70
2022-10-28T20:12:04.324Z,-70
2022-10-28T20:14:32.642Z,-70
2022-10-28T20:17:05.530Z,-69
2022-10-28T20:19:34.225Z,-70
2022-10-28T20:22:01.971Z,-69
2022-10-28T20:24:29.735Z,-70
2022-10-28T20:26:57.431Z,-70
2022-10-28T20:29:27.454Z,-69
2022-10-28T20:31:55.141Z,-69
2022-10-28T20:34:22.940Z,-70
2022-10-28T20:36:51.136Z,-70
2022-10-28T20:39:18.800Z,-69
2022-10-28T20:41:46.508Z,-69
2022-10-28T20:44:14.210Z,-69
2022-10-28T20:46:42.132Z,-69
2022-10-28T20:49:10.607Z,-70
2022-10-28T20:51:38.338Z,-69
2022-10-28T20:54:06.218Z,-69
2022-10-28T20:56:33.852Z,-69
2022-10-28T20:59:04.453Z,-69
2022-10-28T21:01:32.276Z,-69
2022-10-28T21:04:00.255Z,-69
2022-10-28T21:06:27.949Z,-69
2022-10-28T21:08:56.604Z,-70
2022-10-28T21:11:24.357Z,-70
2022-10-28T21:13:53.107Z,-69
2022-10-28T21:16:20.828Z,-70
2022-10-28T21:18:48.494Z,-69
2022-10-28T21:21:16.196Z,-70
2022-10-28T21:23:57.501Z,-68
2022-10-28T21:26:26.723Z,-68
2022-10-28T21:28:54.908Z,-68
2022-10-28T21:31:22.816Z,-68
2022-10-28T21:36:23.090Z,-68
2022-10-28T21:38:50.765Z,-68
2022-10-28T21:41:18.517Z,-69
2022-10-28T21:43:47.740Z,-68
2022-10-28T21:46:15.519Z,-69
2022-10-28T21:48:43.190Z,-68
2022-10-28T21:51:13.548Z,-68
2022-10-28T21:53:43.269Z,-68
2022-10-28T21:56:16.293Z,-68
2022-10-28T21:58:45.157Z,-68
2022-10-28T22:01:13.129Z,-69
2022-10-28T22:03:40.930Z,-69
2022-10-28T22:06:08.618Z,-69
2022-10-28T22:08:36.334Z,-68
2022-10-28T22:11:04.012Z,-68
2022-10-28T22:13:31.732Z,-68
2022-10-28T22:15:59.653Z,-68
2022-10-28T22:18:27.550Z,-68
2022-10-28T22:20:55.214Z,-69
2022-10-28T22:23:22.861Z,-68
2022-10-28T22:25:50.587Z,-69
2022-10-28T22:28:18.286Z,-68
2022-10-28T22:30:45.999Z,-69
2022-10-28T22:33:13.676Z,-69
2022-10-28T22:35:41.373Z,-69
2022-10-28T22:38:09.066Z,-72
2022-10-28T22:40:37.035Z,-72
2022-10-28T22:43:04.713Z,-72
2022-10-28T22:45:32.889Z,-72
2022-10-28T22:48:00.594Z,-72
2022-10-28T22:50:28.335Z,-74
2022-10-28T22:52:56.167Z,-74
2022-10-28T22:55:23.993Z,-75
2022-10-28T22:57:54.297Z,-75
2022-10-28T23:00:22.310Z,-74
2022-10-28T23:02:50.144Z,-75
2022-10-28T23:05:17.909Z,-75
2022-10-28T23:07:45.699Z,-75
2022-10-28T23:10:13.405Z,-75
2022-10-28T23:12:41.087Z,-75
2022-10-28T23:15:08.846Z,-74
2022-10-28T23:17:36.665Z,-75
2022-10-28T23:20:04.354Z,-75
2022-10-28T23:22:32.094Z,-75
2022-10-28T23:24:59.777Z,-75
2022-10-28T23:27:27.459Z,-75
2022-10-28T23:29:55.338Z,-74
2022-10-28T23:32:23.068Z,-75
2022-10-28T23:34:50.762Z,-75
2022-10-28T23:37:18.483Z,-75
2022-10-28T23:39:46.194Z,-75
2022-10-28T23:42:14.026Z,-75
2022-10-28T23:44:41.882Z,-74
2022-10-28T23:47:09.581Z,-75
2022-10-28T23:49:37.276Z,-75
2022-10-28T23:52:04.938Z,-75
2022-10-28T23:54:32.596Z,-75
2022-10-28T23:57:00.312Z,-75
2022-10-28T23:59:27.990Z,-75
